Time;durP1;ratioP1;P1;durP2;ratioP2;P2;SDS_P1;SDS_P2;PMS_P1;PMS_P2;Temp;Humidity;BMP_temperature;BMP_pressure;BME280_temperature;BME280_humidity;BME280_pressure;Samples;Min_cycle;Max_cycle;Signal;HPM_P1;HPM_P2
2023/11/01 00:00:19;;;;;;;13.13;8.57;;;;;;;9.37;100.00;99406.94;10310716;28;20050;-81
2023/11/01 00:05:22;;;;;;;12.98;8.23;;;;;;;9.34;100.00;99413.44;10295848;28;20061;-79
2023/11/01 00:10:27;;;;;;;15.48;9.40;;;;;;;9.33;100.00;99419.78;10311048;28;20050;-81
2023/11/01 00:15:30;;;;;;;13.95;8.80;;;;;;;9.31;100.00;99411.03;10321139;28;20054;-85
2023/11/01 00:20:33;;;;;;;11.77;8.05;;;;;;;9.13;100.00;99432.28;10295103;28;20054;-82
2023/11/01 00:25:37;;;;;;;14.57;8.70;;;;;;;9.20;100.00;99413.84;10297943;28;20061;-79
2023/11/01 00:30:40;;;;;;;10.10;7.70;;;;;;;9.23;100.00;99422.44;10297257;28;20934;-81
2023/11/01 00:35:43;;;;;;;16.42;8.70;;;;;;;9.28;100.00;99414.84;10307553;28;20046;-82
2023/11/01 00:40:48;;;;;;;17.73;9.07;;;;;;;9.15;100.00;99418.75;10305884;28;20046;-80
2023/11/01 00:45:50;;;;;;;14.32;10.07;;;;;;;9.34;100.00;99409.91;10296300;28;20061;-80
2023/11/01 00:50:53;;;;;;;15.43;9.95;;;;;;;9.39;100.00;99400.44;10285925;28;20084;-79
2023/11/01 00:55:57;;;;;;;19.83;10.65;;;;;;;9.49;100.00;99392.44;10277714;28;20046;-81
2023/11/01 01:01:00;;;;;;;20.92;12.55;;;;;;;9.51;100.00;99401.16;10299544;28;21153;-80
2023/11/01 01:06:06;;;;;;;21.52;13.13;;;;;;;9.55;100.00;99391.84;10289679;28;20592;-80
2023/11/01 01:11:11;;;;;;;21.90;14.10;;;;;;;9.62;100.00;99389.44;10296674;28;20062;-80
2023/11/01 01:16:14;;;;;;;20.58;12.45;;;;;;;9.44;100.00;99382.13;10289131;28;20073;-78
2023/11/01 01:21:17;;;;;;;24.08;15.85;;;;;;;9.50;100.00;99375.34;10285769;28;20054;-79
2023/11/01 01:26:21;;;;;;;27.63;17.48;;;;;;;9.50;100.00;99369.97;10301360;28;20264;-79
2023/11/01 01:31:24;;;;;;;28.00;15.75;;;;;;;9.54;100.00;99367.84;10289377;28;20070;-79
2023/11/01 01:36:27;;;;;;;25.80;16.80;;;;;;;9.58;100.00;99364.75;10300576;28;20051;-79
2023/11/01 01:41:31;;;;;;;28.95;17.25;;;;;;;9.62;100.00;99355.41;10282779;28;20061;-80
2023/11/01 01:46:34;;;;;;;28.80;16.33;;;;;;;9.70;100.00;99333.25;10287938;28;20088;-79
2023/11/01 01:51:38;;;;;;;28.08;17.73;;;;;;;9.64;100.00;99336.53;10278332;28;20054;-80
2023/11/01 01:56:42;;;;;;;24.52;16.20;;;;;;;9.68;100.00;99327.19;10289388;28;21148;-80
2023/11/01 02:01:46;;;;;;;21.60;12.55;;;;;;;9.60;100.00;99335.97;10296951;28;20092;-80
2023/11/01 02:06:49;;;;;;;20.58;13.80;;;;;;;9.56;100.00;99329.19;10287199;28;20150;-80
2023/11/01 02:11:53;;;;;;;18.15;12.38;;;;;;;9.77;100.00;99320.97;10287223;28;20055;-80
2023/11/01 02:16:56;;;;;;;20.00;12.85;;;;;;;9.73;100.00;99323.06;10289735;28;20714;-80
2023/11/01 02:21:59;;;;;;;24.30;12.32;;;;;;;9.89;100.00;99329.72;10283542;28;20050;-80
2023/11/01 02:27:04;;;;;;;19.40;10.80;;;;;;;9.85;100.00;99313.03;10290124;28;20046;-79
2023/11/01 02:32:08;;;;;;;12.00;9.77;;;;;;;9.70;100.00;99318.00;10292034;28;20076;-80
2023/11/01 02:37:11;;;;;;;14.18;8.80;;;;;;;9.89;100.00;99311.78;10283721;28;20093;-80
2023/11/01 02:42:15;;;;;;;11.40;7.72;;;;;;;9.86;100.00;99312.09;10290631;28;20082;-79
2023/11/01 02:47:18;;;;;;;16.55;8.18;;;;;;;9.93;100.00;99305.16;10289302;28;20046;-82
2023/11/01 02:52:21;;;;;;;15.93;8.25;;;;;;;9.87;100.00;99300.38;10285567;28;20054;-80
2023/11/01 02:57:26;;;;;;;9.90;7.38;;;;;;;9.92;100.00;99305.28;10280688;28;20581;-81
2023/11/01 03:02:29;;;;;;;14.40;6.97;;;;;;;9.93;100.00;99307.84;10278056;28;20073;-81
2023/11/01 03:07:32;;;;;;;12.77;6.18;;;;;;;9.79;100.00;99300.22;10287377;28;20074;-81
2023/11/01 03:12:38;;;;;;;19.48;6.68;;;;;;;9.72;100.00;99293.75;10296517;28;20050;-80
2023/11/01 03:17:42;;;;;;;10.00;5.55;;;;;;;10.01;100.00;99301.75;10291562;28;20050;-80
2023/11/01 03:22:45;;;;;;;8.73;5.65;;;;;;;9.99;100.00;99301.03;10288168;28;20054;-79
2023/11/01 03:27:49;;;;;;;10.93;6.00;;;;;;;10.00;100.00;99301.88;10292555;28;20046;-80
2023/11/01 03:32:52;;;;;;;8.23;5.18;;;;;;;10.01;100.00;99285.66;10287760;28;20054;-81
2023/11/01 03:37:55;;;;;;;9.57;5.53;;;;;;;9.94;100.00;99289.91;10285701;28;20135;-81
2023/11/01 03:43:01;;;;;;;8.15;5.15;;;;;;;9.93;100.00;99293.59;10288792;28;20496;-79
2023/11/01 03:48:04;;;;;;;19.17;5.03;;;;;;;9.94;100.00;99293.41;10290731;28;20043;-80
2023/11/01 03:53:08;;;;;;;10.98;4.47;;;;;;;10.00;100.00;99291.97;10294992;28;20156;-79
2023/11/01 03:58:12;;;;;;;9.82;4.15;;;;;;;9.94;100.00;99287.22;10280916;28;20667;-80
2023/11/01 04:03:15;;;;;;;6.25;4.68;;;;;;;9.86;100.00;99281.72;10280916;28;20603;-78
2023/11/01 04:08:18;;;;;;;6.85;4.35;;;;;;;9.95;100.00;99283.53;10272207;28;20062;-79
2023/11/01 04:13:23;;;;;;;10.48;4.55;;;;;;;9.90;100.00;99270.56;10287123;28;20053;-78
2023/11/01 04:18:26;;;;;;;8.35;3.67;;;;;;;9.81;100.00;99258.00;10272652;28;20054;-78
2023/11/01 04:23:29;;;;;;;5.30;3.63;;;;;;;9.84;100.00;99255.00;10283448;28;21152;-80
2023/11/01 04:28:33;;;;;;;9.07;5.05;;;;;;;9.91;100.00;99248.13;10297947;28;20570;-79
2023/11/01 04:33:37;;;;;;;8.98;4.07;;;;;;;9.90;100.00;99256.28;10283030;28;20055;-78
2023/11/01 04:38:41;;;;;;;17.15;4.47;;;;;;;9.98;100.00;99250.19;10282571;28;20054;-80
2023/11/01 04:43:47;;;;;;;7.43;3.72;;;;;;;9.96;100.00;99247.69;10282526;28;20064;-78
2023/11/01 04:48:50;;;;;;;9.57;3.58;;;;;;;10.01;100.00;99236.47;10299291;28;20050;-79
2023/11/01 04:53:53;;;;;;;7.15;3.33;;;;;;;9.99;100.00;99231.28;10320596;28;20050;-79
2023/11/01 04:58:57;;;;;;;6.50;3.10;;;;;;;9.99;100.00;99230.44;10291507;28;20046;-78
2023/11/01 05:04:00;;;;;;;7.65;3.15;;;;;;;9.95;100.00;99229.88;10292976;28;20066;-79
2023/11/01 05:09:04;;;;;;;4.93;3.10;;;;;;;9.94;100.00;99220.16;10295749;28;21269;-80
2023/11/01 05:14:09;;;;;;;5.78;2.40;;;;;;;9.87;100.00;99216.34;10298587;28;20058;-80
2023/11/01 05:19:12;;;;;;;4.88;2.63;;;;;;;9.90;100.00;99219.63;10293099;28;20050;-78
2023/11/01 05:24:15;;;;;;;4.20;2.30;;;;;;;9.84;100.00;99208.59;10291503;28;20043;-80
2023/11/01 05:29:19;;;;;;;6.68;2.33;;;;;;;9.85;100.00;99203.09;10300474;28;20565;-79
2023/11/01 05:34:22;;;;;;;5.75;2.60;;;;;;;9.86;100.00;99195.91;10289480;28;20069;-79
2023/11/01 05:39:25;;;;;;;8.18;2.33;;;;;;;9.88;100.00;99189.41;10299427;28;20047;-78
2023/11/01 05:44:30;;;;;;;5.75;2.05;;;;;;;9.77;100.00;99186.88;10296247;28;20061;-79
2023/11/01 05:49:33;;;;;;;2.13;1.73;;;;;;;9.69;100.00;99187.63;10299781;28;20061;-79
2023/11/01 05:54:36;;;;;;;8.85;2.15;;;;;;;9.86;100.00;99190.53;10293315;28;20055;-80
2023/11/01 05:59:40;;;;;;;3.78;2.05;;;;;;;9.93;100.00;99189.81;10287621;28;20734;-78
2023/11/01 06:04:43;;;;;;;3.75;1.95;;;;;;;9.96;100.00;99191.34;10290798;28;20061;-79
2023/11/01 06:09:45;;;;;;;4.38;2.25;;;;;;;9.83;100.00;99197.00;10293840;28;20050;-79
2023/11/01 06:14:50;;;;;;;5.50;2.08;;;;;;;9.70;100.00;99199.19;10279990;28;20555;-78
2023/11/01 06:19:52;;;;;;;5.97;2.25;;;;;;;9.72;100.00;99194.53;10295763;28;20053;-80
2023/11/01 06:24:55;;;;;;;3.88;1.88;;;;;;;9.77;100.00;99186.88;10318665;28;20058;-78
2023/11/01 06:30:00;;;;;;;5.55;2.47;;;;;;;9.90;100.00;99189.25;10312665;28;20056;-81
2023/11/01 06:35:04;;;;;;;7.78;2.78;;;;;;;9.85;100.00;99181.63;10292696;28;20506;-80
2023/11/01 06:40:09;;;;;;;3.45;2.22;;;;;;;9.85;100.00;99178.94;10281581;28;20050;-81
2023/11/01 06:45:14;;;;;;;6.55;2.50;;;;;;;9.94;100.00;99167.34;10281837;28;20050;-81
2023/11/01 06:50:16;;;;;;;3.63;2.35;;;;;;;9.98;100.00;99167.03;10288337;28;20066;-82
2023/11/01 06:55:19;;;;;;;3.75;1.80;;;;;;;10.01;100.00;99164.06;10294599;28;20066;-81
2023/11/01 07:00:24;;;;;;;3.58;2.00;;;;;;;9.81;100.00;99157.94;10291519;28;20061;-81
2023/11/01 07:05:27;;;;;;;3.00;1.95;;;;;;;9.90;100.00;99165.97;10298612;28;20116;-79
2023/11/01 07:10:30;;;;;;;3.83;1.55;;;;;;;9.90;100.00;99173.16;10304411;28;20050;-80
2023/11/01 07:15:34;;;;;;;3.92;2.28;;;;;;;9.78;100.00;99161.75;10290051;28;20061;-81
2023/11/01 07:20:38;;;;;;;2.95;2.05;;;;;;;9.67;100.00;99170.00;10303801;28;20046;-80
2023/11/01 07:25:41;;;;;;;2.58;1.85;;;;;;;9.97;100.00;99166.19;10295169;28;20046;-80
2023/11/01 07:30:46;;;;;;;2.85;1.60;;;;;;;10.04;100.00;99147.66;10293826;28;20054;-80
2023/11/01 07:35:49;;;;;;;3.63;1.63;;;;;;;10.00;100.00;99163.22;10295028;28;20055;-80
2023/11/01 07:40:52;;;;;;;2.92;1.50;;;;;;;9.93;100.00;99162.97;10281178;28;20129;-81
2023/11/01 07:45:57;;;;;;;4.88;1.70;;;;;;;10.19;100.00;99162.25;10288232;28;20046;-80
2023/11/01 07:51:01;;;;;;;5.13;1.77;;;;;;;10.22;100.00;99151.22;10293206;28;20297;-79
2023/11/01 07:56:05;;;;;;;9.68;2.03;;;;;;;10.34;100.00;99158.06;10280970;28;20096;-80
2023/11/01 08:01:09;;;;;;;3.28;2.10;;;;;;;10.23;100.00;99158.28;10289653;28;20058;-80
2023/11/01 08:06:12;;;;;;;4.88;1.55;;;;;;;10.11;100.00;99157.63;10295173;28;21209;-79
2023/11/01 08:11:15;;;;;;;2.17;1.55;;;;;;;10.17;100.00;99159.72;10288134;28;20216;-80
2023/11/01 08:16:19;;;;;;;3.15;1.48;;;;;;;10.26;100.00;99149.91;10288844;28;20046;-80
2023/11/01 08:21:22;;;;;;;3.20;1.13;;;;;;;10.22;100.00;99145.84;10304602;28;20057;-79
2023/11/01 08:26:25;;;;;;;3.28;1.15;;;;;;;10.24;100.00;99151.91;10296628;28;20660;-79
2023/11/01 08:31:29;;;;;;;1.98;1.23;;;;;;;10.34;100.00;99155.38;10303289;28;20053;-80
2023/11/01 08:36:32;;;;;;;1.55;1.30;;;;;;;10.43;100.00;99158.13;10304133;28;20074;-79
2023/11/01 08:41:35;;;;;;;3.17;1.60;;;;;;;10.66;100.00;99155.81;10304952;28;20480;-80
2023/11/01 08:46:39;;;;;;;6.88;1.75;;;;;;;10.42;100.00;99156.44;10298787;28;20390;-80
2023/11/01 08:51:42;;;;;;;1.90;1.15;;;;;;;10.60;100.00;99155.44;10303033;28;20138;-80
2023/11/01 08:56:45;;;;;;;7.25;1.65;;;;;;;10.45;100.00;99153.44;10301436;28;20061;-80
2023/11/01 09:01:49;;;;;;;3.33;1.35;;;;;;;10.86;100.00;99134.97;10298541;28;20968;-80
2023/11/01 09:06:52;;;;;;;3.80;1.40;;;;;;;11.10;100.00;99137.00;10243838;28;20042;-81
2023/11/01 09:11:55;;;;;;;1.98;1.27;;;;;;;11.05;100.00;99141.03;10291617;28;20133;-79
2023/11/01 09:17:00;;;;;;;4.95;1.30;;;;;;;11.07;100.00;99143.53;10304013;28;20452;-79
2023/11/01 09:22:04;;;;;;;4.00;1.23;;;;;;;11.34;100.00;99139.03;10308120;28;20166;-80
2023/11/01 09:27:07;;;;;;;3.88;1.30;;;;;;;11.62;100.00;99132.44;10296423;28;20045;-80
2023/11/01 09:32:12;;;;;;;3.13;1.20;;;;;;;11.89;100.00;99139.44;10301335;28;20774;-78
2023/11/01 09:37:15;;;;;;;4.45;1.20;;;;;;;12.14;100.00;99132.28;10306281;28;20054;-79
2023/11/01 09:42:21;;;;;;;2.22;0.88;;;;;;;12.33;100.00;99136.56;10298818;28;20057;-79
2023/11/01 09:47:26;;;;;;;3.25;1.20;;;;;;;12.51;100.00;99130.19;10289266;28;20089;-81
2023/11/01 09:52:31;;;;;;;4.63;0.90;;;;;;;12.67;100.00;99132.03;10290398;28;20071;-79
2023/11/01 09:57:39;;;;;;;2.28;1.40;;;;;;;12.63;100.00;99133.41;10293203;28;20581;-81
2023/11/01 10:02:44;;;;;;;4.38;1.45;;;;;;;12.36;100.00;99114.69;10301766;28;20050;-80
2023/11/01 10:07:47;;;;;;;2.95;1.20;;;;;;;12.53;100.00;99120.06;10296292;28;20061;-79
2023/11/01 10:12:50;;;;;;;2.25;1.00;;;;;;;12.88;100.00;99124.28;10294735;28;20100;-80
2023/11/01 10:17:54;;;;;;;5.13;1.20;;;;;;;13.27;100.00;99121.72;10298079;28;20054;-79
2023/11/01 10:22:57;;;;;;;4.43;1.10;;;;;;;13.20;97.05;99109.91;10296682;28;20147;-79
2023/11/01 10:28:01;;;;;;;6.40;1.00;;;;;;;13.49;98.99;99103.09;10304551;28;20050;-80
2023/11/01 10:33:06;;;;;;;5.80;0.85;;;;;;;13.82;92.72;99097.56;10293998;28;20061;-79
2023/11/01 10:38:09;;;;;;;2.63;1.10;;;;;;;13.82;91.10;99090.34;10295497;28;20065;-79
2023/11/01 10:43:14;;;;;;;8.05;1.23;;;;;;;13.74;93.07;99078.72;10300169;28;20061;-80
2023/11/01 10:48:20;;;;;;;5.57;1.20;;;;;;;14.13;90.10;99082.22;10315293;28;20046;-78
2023/11/01 10:53:23;;;;;;;8.45;1.08;;;;;;;14.63;87.72;99071.88;10312210;28;20055;-77
2023/11/01 10:58:28;;;;;;;4.43;1.02;;;;;;;14.23;83.11;99076.56;10311612;28;20069;-78
2023/11/01 11:03:43;;;;;;;4.65;1.00;;;;;;;13.61;84.75;99074.75;10307411;28;21209;-79
2023/11/01 11:09:19;;;;;;;5.85;1.42;;;;;;;14.01;85.60;99064.72;10316320;28;20046;-78
2023/11/01 11:14:40;;;;;;;3.47;1.30;;;;;;;14.05;84.62;99070.63;10307262;28;20050;-78
2023/11/01 11:20:13;;;;;;;5.53;1.48;;;;;;;13.56;86.16;99079.81;10307335;28;20063;-78
2023/11/01 11:25:45;;;;;;;5.95;1.80;;;;;;;13.43;86.17;99058.78;10314593;28;20058;-78
2023/11/01 11:31:00;;;;;;;3.40;0.98;;;;;;;13.36;86.05;99060.50;10305855;28;20058;-78
2023/11/01 11:36:18;;;;;;;6.45;1.10;;;;;;;13.74;83.59;99049.91;10310341;28;20106;-79
2023/11/01 11:41:23;;;;;;;5.20;0.90;;;;;;;13.91;82.98;99050.63;10297930;28;20112;-79
2023/11/01 11:46:31;;;;;;;7.15;1.58;;;;;;;13.86;81.94;99043.06;10302414;28;20057;-78
2023/11/01 11:51:37;;;;;;;5.80;1.30;;;;;;;14.33;83.38;99033.09;10311396;28;20057;-77
2023/11/01 11:56:40;;;;;;;4.50;1.02;;;;;;;15.76;76.62;99013.16;10315065;28;20130;-77
2023/11/01 12:01:43;;;;;;;4.18;0.98;;;;;;;15.53;74.24;98997.91;10311417;28;20156;-78
2023/11/01 12:06:50;;;;;;;3.97;0.93;;;;;;;14.62;78.94;99008.06;10303532;28;20059;-78
2023/11/01 12:11:54;;;;;;;7.68;1.10;;;;;;;14.65;77.94;98996.06;10301456;28;20046;-78
2023/11/01 12:17:00;;;;;;;7.72;1.00;;;;;;;15.31;72.68;98978.03;10282916;28;20050;-78
2023/11/01 12:22:09;;;;;;;2.75;0.80;;;;;;;16.26;70.32;98970.75;10301350;28;20506;-78
2023/11/01 12:27:13;;;;;;;4.75;0.80;;;;;;;16.01;69.95;98964.88;10308135;28;20050;-78
2023/11/01 12:32:18;;;;;;;4.30;1.23;;;;;;;16.29;66.98;98963.09;10298646;28;20061;-78
2023/11/01 12:37:24;;;;;;;4.03;0.80;;;;;;;16.26;67.03;98954.50;10307450;28;20050;-78
2023/11/01 12:42:29;;;;;;;4.97;0.80;;;;;;;16.38;64.59;98942.09;10301144;28;20061;-77
2023/11/01 12:47:41;;;;;;;4.88;0.85;;;;;;;15.66;67.58;98946.63;10306618;28;20073;-77
2023/11/01 12:52:46;;;;;;;4.57;0.90;;;;;;;15.88;66.95;98938.53;10358520;28;20064;-79
2023/11/01 12:57:50;;;;;;;3.40;0.95;;;;;;;16.10;63.80;98939.34;10387225;28;20054;-79
2023/11/01 13:02:53;;;;;;;3.83;1.40;;;;;;;15.96;65.49;98924.81;10394886;28;20045;-77
2023/11/01 13:08:01;;;;;;;5.03;1.13;;;;;;;15.49;67.87;98910.00;10392787;28;20053;-79
2023/11/01 13:13:04;;;;;;;1.80;0.90;;;;;;;15.01;69.18;98918.59;10374544;28;20393;-77
2023/11/01 13:18:09;;;;;;;4.53;0.93;;;;;;;14.62;70.87;98913.50;10378088;28;20651;-78
2023/11/01 13:23:14;;;;;;;6.18;1.20;;;;;;;14.32;73.04;98899.94;10372996;28;20061;-78
2023/11/01 13:28:16;;;;;;;6.78;1.70;;;;;;;14.39;72.19;98894.66;10373246;28;20064;-78
2023/11/01 13:33:19;;;;;;;9.88;1.40;;;;;;;14.40;73.05;98892.78;10374123;28;20049;-77
2023/11/01 13:38:24;;;;;;;4.93;1.13;;;;;;;14.28;73.12;98890.50;10390268;28;20049;-77
2023/11/01 13:43:26;;;;;;;5.38;1.25;;;;;;;14.08;73.73;98892.06;10386135;28;20056;-76
2023/11/01 13:48:29;;;;;;;5.95;1.20;;;;;;;14.32;72.86;98885.59;10373346;28;20053;-77
2023/11/01 13:53:34;;;;;;;4.55;1.08;;;;;;;14.36;71.88;98873.38;10369186;28;21192;-77
2023/11/01 13:58:37;;;;;;;3.72;1.00;;;;;;;14.25;72.71;98865.75;10371104;28;21640;-77
2023/11/01 14:03:42;;;;;;;6.22;1.75;;;;;;;13.93;72.07;98860.50;10375112;28;21066;-77
2023/11/01 14:08:47;;;;;;;6.50;1.00;;;;;;;13.84;72.21;98847.25;10370850;28;20755;-77
2023/11/01 14:13:51;;;;;;;5.18;1.30;;;;;;;13.87;71.62;98849.56;10371988;28;20042;-76
2023/11/01 14:18:53;;;;;;;6.43;1.60;;;;;;;13.63;71.93;98845.22;10362755;28;20049;-79
2023/11/01 14:23:58;;;;;;;2.72;0.98;;;;;;;13.90;70.46;98841.09;10374415;28;20528;-79
2023/11/01 14:29:01;;;;;;;6.70;1.38;;;;;;;13.65;71.17;98846.72;10356725;28;20041;-78
2023/11/01 14:34:05;;;;;;;7.55;1.20;;;;;;;13.91;70.29;98834.72;10375359;28;20042;-79
2023/11/01 14:39:09;;;;;;;11.38;2.17;;;;;;;13.73;70.59;98829.63;10376793;28;20053;-78
2023/11/01 14:44:12;;;;;;;3.55;1.17;;;;;;;13.54;70.69;98819.34;10379556;28;20041;-78
2023/11/01 14:49:15;;;;;;;7.28;1.17;;;;;;;13.69;70.82;98802.19;10376930;28;20041;-79
2023/11/01 14:54:22;;;;;;;5.85;1.33;;;;;;;13.74;69.70;98801.66;10364590;28;20508;-79
2023/11/01 14:59:25;;;;;;;9.48;1.25;;;;;;;13.53;70.44;98807.72;10373255;28;20064;-79
2023/11/01 15:04:28;;;;;;;5.03;1.42;;;;;;;13.67;69.61;98796.13;10374012;28;20054;-79
2023/11/01 15:09:33;;;;;;;5.43;1.58;;;;;;;13.68;70.10;98788.88;10368747;28;20052;-79
2023/11/01 15:14:37;;;;;;;6.25;1.35;;;;;;;13.40;70.19;98794.84;10341251;28;20045;-77
2023/11/01 15:19:43;;;;;;;6.43;1.60;;;;;;;13.57;70.44;98811.72;10352685;28;20053;-79
2023/11/01 15:24:48;;;;;;;3.95;1.35;;;;;;;13.30;70.65;98786.13;10366010;28;20585;-79
2023/11/01 15:29:52;;;;;;;5.28;1.30;;;;;;;13.25;71.42;98793.94;10377569;28;20056;-78
2023/11/01 15:34:55;;;;;;;5.40;1.17;;;;;;;13.24;71.72;98778.75;10381625;28;20077;-80
2023/11/01 15:39:59;;;;;;;3.65;1.25;;;;;;;13.27;71.63;98781.97;10380360;28;20054;-80
2023/11/01 15:45:07;;;;;;;3.28;0.95;;;;;;;12.81;73.06;98775.72;10373628;28;20048;-78
2023/11/01 15:50:10;;;;;;;4.53;1.30;;;;;;;13.01;72.52;98770.69;10393291;28;20049;-79
2023/11/01 15:55:15;;;;;;;5.13;1.45;;;;;;;12.95;72.17;98772.25;10370040;28;20045;-79
2023/11/01 16:00:18;;;;;;;6.20;1.27;;;;;;;12.88;72.46;98744.31;10371005;28;20049;-79
2023/11/01 16:05:21;;;;;;;5.32;1.17;;;;;;;12.91;72.10;98745.81;10355957;28;20045;-78
2023/11/01 16:10:25;;;;;;;3.05;1.23;;;;;;;12.86;72.42;98734.75;10356165;28;20056;-79
2023/11/01 16:15:30;;;;;;;5.18;1.55;;;;;;;12.76;72.72;98735.81;10341459;28;20061;-79
2023/11/01 16:20:33;;;;;;;2.90;1.70;;;;;;;12.76;72.62;98737.69;10370728;28;20451;-79
2023/11/01 16:25:37;;;;;;;4.28;1.40;;;;;;;12.76;71.98;98743.06;10367014;28;20140;-79
2023/11/01 16:30:40;;;;;;;4.10;1.15;;;;;;;12.76;72.01;98738.50;10373600;28;20054;-78
2023/11/01 16:35:43;;;;;;;7.85;1.65;;;;;;;12.75;72.29;98736.00;10362660;28;20101;-77
2023/11/01 16:40:47;;;;;;;4.78;1.83;;;;;;;12.73;72.06;98736.19;10373585;28;20041;-78
2023/11/01 16:45:50;;;;;;;4.80;1.13;;;;;;;12.63;72.26;98727.50;10374533;28;20057;-78
2023/11/01 16:50:53;;;;;;;4.60;1.15;;;;;;;12.43;73.25;98728.97;10380858;28;20052;-78
2023/11/01 16:55:58;;;;;;;6.40;1.27;;;;;;;12.36;73.80;98731.50;10378244;28;20056;-77
2023/11/01 17:01:00;;;;;;;7.30;1.88;;;;;;;12.48;73.40;98723.84;10381895;28;20788;-79
2023/11/01 17:06:03;;;;;;;9.43;1.80;;;;;;;12.34;74.18;98745.16;10385743;28;20606;-81
2023/11/01 17:11:08;;;;;;;7.30;1.30;;;;;;;12.26;74.64;98739.78;10376620;28;20045;-78
2023/11/01 17:16:11;;;;;;;5.60;1.60;;;;;;;12.28;74.75;98737.75;10378770;28;20063;-79
2023/11/01 17:21:14;;;;;;;3.00;1.35;;;;;;;12.14;75.53;98743.84;10377356;28;20057;-79
2023/11/01 17:26:29;;;;;;;8.32;1.60;;;;;;;12.30;74.83;98746.50;10377757;28;20045;-80
2023/11/01 17:31:40;;;;;;;3.08;1.33;;;;;;;12.33;74.98;98746.16;10377363;28;20046;-79
2023/11/01 17:36:43;;;;;;;8.52;1.55;;;;;;;12.34;74.93;98745.16;10380819;28;20046;-80
2023/11/01 17:41:58;;;;;;;3.88;1.38;;;;;;;12.17;75.10;98743.50;10385751;28;20045;-78
2023/11/01 17:47:03;;;;;;;5.07;1.20;;;;;;;12.30;74.39;98741.13;10386991;28;20041;-80
2023/11/01 17:52:07;;;;;;;6.35;1.88;;;;;;;12.16;74.41;98733.75;10377992;28;20049;-79
2023/11/01 17:57:17;;;;;;;7.47;1.58;;;;;;;12.31;73.54;98728.50;10365612;28;20067;-79
2023/11/01 18:02:56;;;;;;;3.97;1.10;;;;;;;12.18;74.00;98723.66;10403982;28;20128;-80
2023/11/01 18:07:59;;;;;;;10.32;1.65;;;;;;;12.35;73.06;98719.06;10379661;28;20083;-80
2023/11/01 18:13:16;;;;;;;2.60;0.90;;;;;;;12.45;72.84;98710.75;10376978;28;20049;-78
2023/11/01 18:18:38;;;;;;;6.40;1.23;;;;;;;12.45;72.12;98708.06;10360412;28;20050;-79
2023/11/01 18:23:50;;;;;;;6.93;0.90;;;;;;;12.38;72.12;98702.56;10374406;28;20703;-80
2023/11/01 18:28:56;;;;;;;7.72;1.35;;;;;;;12.64;71.01;98702.22;10372213;28;20102;-79
2023/11/01 18:34:01;;;;;;;5.47;1.30;;;;;;;12.41;72.17;98698.69;10356923;28;20095;-78
2023/11/01 18:39:04;;;;;;;2.78;1.15;;;;;;;12.50;75.15;98684.97;10371275;28;20124;-79
2023/11/01 18:44:22;;;;;;;6.50;1.55;;;;;;;12.15;77.35;98694.41;10372437;28;20049;-79
2023/11/01 18:49:53;;;;;;;6.07;1.20;;;;;;;12.08;78.20;98690.72;10374365;28;20049;-79
2023/11/01 18:54:55;;;;;;;4.88;1.17;;;;;;;11.88;79.73;98690.31;10371834;28;20519;-79
2023/11/01 19:00:00;;;;;;;6.53;1.67;;;;;;;11.84;80.77;98681.75;10375967;28;21521;-80
2023/11/01 19:05:06;;;;;;;4.85;1.15;;;;;;;11.85;80.23;98669.97;10371602;28;20107;-79
2023/11/01 19:10:11;;;;;;;3.55;0.90;;;;;;;11.85;79.49;98679.91;10354028;28;20621;-79
2023/11/01 19:20:44;;;;;;;3.92;1.23;;;;;;;11.96;77.68;98679.53;10441112;27;20476;-79
2023/11/01 19:25:48;;;;;;;1.83;0.65;;;;;;;12.19;75.33;98662.59;10439797;28;20045;-78
2023/11/01 19:30:51;;;;;;;2.28;1.10;;;;;;;12.25;75.39;98665.41;10443552;28;20056;-80
2023/11/01 19:35:55;;;;;;;6.15;1.35;;;;;;;12.27;75.18;98655.31;10436768;28;20041;-81
2023/11/01 19:41:13;;;;;;;3.28;1.27;;;;;;;12.27;74.15;98658.00;10427991;28;20045;-79
2023/11/01 19:46:16;;;;;;;2.38;1.17;;;;;;;12.41;73.73;98644.81;10440587;28;20130;-78
2023/11/01 19:51:21;;;;;;;2.00;1.15;;;;;;;12.34;73.27;98642.00;10432962;28;20491;-79
2023/11/01 19:56:25;;;;;;;1.45;0.98;;;;;;;12.26;73.33;98634.78;10432406;28;20045;-78
2023/11/01 20:01:30;;;;;;;2.60;1.10;;;;;;;12.27;72.90;98636.47;10437872;28;20041;-79
2023/11/01 20:06:34;;;;;;;2.28;0.80;;;;;;;11.89;73.55;98640.88;10439571;28;20041;-79
2023/11/01 20:11:38;;;;;;;1.58;0.70;;;;;;;11.88;73.96;98634.66;10440586;28;20048;-81
2023/11/01 20:16:41;;;;;;;3.83;0.80;;;;;;;11.94;72.85;98638.50;10424810;28;20045;-79
2023/11/01 20:21:46;;;;;;;3.38;0.60;;;;;;;12.16;72.24;98634.19;10439180;28;20060;-79
2023/11/01 20:26:49;;;;;;;1.27;0.60;;;;;;;11.83;72.71;98652.34;10442060;28;20045;-78
2023/11/01 20:31:53;;;;;;;1.70;0.68;;;;;;;12.24;71.84;98660.22;10432348;28;20041;-80
2023/11/01 20:36:57;;;;;;;2.60;0.70;;;;;;;11.88;73.02;98639.19;10418017;28;20061;-80
2023/11/01 20:42:00;;;;;;;3.70;0.70;;;;;;;11.91;72.68;98637.00;10417412;28;20049;-80
2023/11/01 20:47:03;;;;;;;1.35;0.70;;;;;;;12.00;72.83;98639.66;10424204;28;20052;-80
2023/11/01 20:52:08;;;;;;;4.55;1.83;;;;;;;11.83;72.95;98631.66;10417305;28;20046;-80
2023/11/01 20:57:12;;;;;;;2.55;0.70;;;;;;;12.00;72.65;98612.75;10423404;28;20052;-80
2023/11/01 21:02:15;;;;;;;5.70;0.90;;;;;;;11.64;73.11;98614.06;10407986;28;20053;-80
2023/11/01 21:07:22;;;;;;;1.08;0.60;;;;;;;11.56;73.85;98608.72;10403222;28;20127;-78
2023/11/01 21:12:24;;;;;;;1.85;0.73;;;;;;;11.29;73.71;98639.56;10404652;28;20053;-78
2023/11/01 21:17:27;;;;;;;3.13;0.60;;;;;;;11.38;73.46;98621.56;10412258;28;20745;-79
2023/11/01 21:22:33;;;;;;;2.17;0.90;;;;;;;11.43;72.67;98593.13;10419581;28;20044;-79
2023/11/01 21:27:36;;;;;;;1.35;1.02;;;;;;;11.23;73.21;98598.06;10419735;28;20049;-80
2023/11/01 21:32:39;;;;;;;3.88;0.73;;;;;;;11.30;72.86;98590.19;10407732;28;20049;-79
2023/11/01 21:37:45;;;;;;;3.80;0.63;;;;;;;11.26;73.36;98586.16;10408935;28;20504;-78
2023/11/01 21:42:48;;;;;;;2.53;0.90;;;;;;;11.24;73.92;98578.28;10409695;28;20042;-80
2023/11/01 21:47:51;;;;;;;1.83;0.82;;;;;;;11.04;75.02;98575.06;10395816;28;20049;-80
2023/11/01 21:52:56;;;;;;;3.35;1.10;;;;;;;10.94;76.32;98574.44;10405751;28;20129;-79
2023/11/01 21:58:00;;;;;;;2.83;0.90;;;;;;;10.94;76.26;98558.34;10396742;28;20068;-79
2023/11/01 22:03:15;;;;;;;2.15;0.65;;;;;;;10.91;76.50;98560.50;10380557;28;20054;-79
2023/11/01 22:08:47;;;;;;;1.80;0.70;;;;;;;10.70;77.42;98559.19;10398478;28;20118;-80
2023/11/01 22:13:50;;;;;;;2.28;0.68;;;;;;;10.64;77.73;98550.97;10401518;28;20057;-80
2023/11/01 22:18:54;;;;;;;3.85;0.85;;;;;;;10.63;78.19;98547.44;10405783;28;20753;-80
2023/11/01 22:24:01;;;;;;;2.00;0.98;;;;;;;10.53;78.23;98541.41;10426446;28;20064;-79
2023/11/01 22:29:05;;;;;;;4.18;0.60;;;;;;;10.48;78.36;98544.63;10394718;28;20045;-79
2023/11/01 22:34:09;;;;;;;4.03;0.73;;;;;;;10.50;78.60;98526.47;10396245;28;20056;-78
2023/11/01 22:39:14;;;;;;;3.42;1.17;;;;;;;10.42;78.55;98525.66;10388731;28;20133;-78
2023/11/01 22:44:17;;;;;;;0.95;0.60;;;;;;;10.43;78.24;98506.72;10388532;28;20441;-78
2023/11/01 22:49:20;;;;;;;2.47;0.73;;;;;;;10.21;79.17;98491.28;10382003;28;20049;-78
2023/11/01 22:54:25;;;;;;;3.65;1.13;;;;;;;10.37;78.35;98486.75;10393092;28;20053;-78
2023/11/01 22:59:28;;;;;;;1.77;0.50;;;;;;;10.38;78.01;98490.28;10381146;28;20094;-79
2023/11/01 23:04:31;;;;;;;2.88;0.90;;;;;;;10.14;79.01;98466.97;10404077;28;20048;-79
2023/11/01 23:09:36;;;;;;;3.53;0.57;;;;;;;10.11;79.03;98464.63;10389902;28;20056;-79
2023/11/01 23:14:39;;;;;;;4.93;0.88;;;;;;;10.02;79.51;98469.16;10408300;28;20044;-80
2023/11/01 23:19:42;;;;;;;3.47;0.63;;;;;;;10.11;78.62;98464.63;10388231;28;21231;-80
2023/11/01 23:24:46;;;;;;;3.47;0.68;;;;;;;10.10;78.93;98461.09;10396223;28;20048;-80
2023/11/01 23:29:49;;;;;;;2.40;0.73;;;;;;;10.09;78.53;98451.41;10383418;28;20053;-78
2023/11/01 23:34:52;;;;;;;2.03;0.90;;;;;;;10.12;78.37;98445.69;10391921;28;20690;-78